createdAt,value
2018-12-08T00:00:50.274Z,932.59
2018-12-08T00:01:50.282Z,932.62
2018-12-08T00:02:50.317Z,932.69
2018-12-08T00:03:50.308Z,932.68
2018-12-08T00:04:50.463Z,932.71
2018-12-08T00:05:50.344Z,932.73
2018-12-08T00:06:50.402Z,932.70
2018-12-08T00:07:50.364Z,932.70
2018-12-08T00:08:50.369Z,932.72
2018-12-08T00:09:50.488Z,932.72
2018-12-08T00:10:50.413Z,932.76
2018-12-08T00:11:50.402Z,932.77
2018-12-08T00:12:50.414Z,932.80
2018-12-08T00:13:50.426Z,932.79
2018-12-08T00:14:50.674Z,932.83
2018-12-08T00:15:50.453Z,932.83
2018-12-08T00:16:50.481Z,932.84
2018-12-08T00:17:50.494Z,932.85
2018-12-08T00:18:50.626Z,932.83
2018-12-08T00:19:50.611Z,932.82
2018-12-08T00:20:50.545Z,932.84
2018-12-08T00:21:50.591Z,932.87
2018-12-08T00:22:50.564Z,932.92
2018-12-08T00:23:50.631Z,932.96
2018-12-08T00:24:50.801Z,932.93
2018-12-08T00:25:50.594Z,932.93
2018-12-08T00:26:50.599Z,932.91
2018-12-08T00:27:50.623Z,932.87
2018-12-08T00:28:50.625Z,932.78
2018-12-08T00:29:50.838Z,932.74
2018-12-08T00:30:50.674Z,932.67
2018-12-08T00:31:50.663Z,932.78
2018-12-08T00:32:50.694Z,932.76
2018-12-08T00:33:50.815Z,932.68
2018-12-08T00:34:50.820Z,932.73
2018-12-08T00:35:50.773Z,932.75
2018-12-08T00:36:50.741Z,932.76
2018-12-08T00:37:50.754Z,932.87
2018-12-08T00:38:50.765Z,932.87
2018-12-08T00:39:50.882Z,932.95
2018-12-08T00:40:50.903Z,932.97
2018-12-08T00:41:50.916Z,932.96
2018-12-08T00:42:50.812Z,932.95
2018-12-08T00:43:50.818Z,932.97
2018-12-08T00:44:50.953Z,932.95
2018-12-08T00:45:50.851Z,932.92
2018-12-08T00:46:50.863Z,932.88
2018-12-08T00:47:50.992Z,932.95
2018-12-08T00:48:50.888Z,932.93
2018-12-08T00:49:51.093Z,932.94
2018-12-08T00:50:50.895Z,932.98
2018-12-08T00:51:51.048Z,932.96
2018-12-08T00:52:50.932Z,932.95
2018-12-08T00:53:50.954Z,933.03
2018-12-08T00:54:51.115Z,933.06
2018-12-08T00:55:50.993Z,933.06
2018-12-08T00:56:50.983Z,933.11
2018-12-08T00:57:51.005Z,933.07
2018-12-08T00:58:51.031Z,933.11
2018-12-08T00:59:51.113Z,933.06
2018-12-08T01:00:51.049Z,933.20
2018-12-08T01:01:51.055Z,933.21
2018-12-08T01:02:51.064Z,933.14
2018-12-08T01:03:51.076Z,933.15
2018-12-08T01:04:51.253Z,933.10
2018-12-08T01:05:51.234Z,933.15
2018-12-08T01:06:51.143Z,933.16
2018-12-08T01:07:51.132Z,933.15
2018-12-08T01:08:51.158Z,933.14
2018-12-08T01:09:51.321Z,933.13
2018-12-08T01:10:51.190Z,933.09
2018-12-08T01:11:51.179Z,932.94
2018-12-08T01:12:51.190Z,933.01
2018-12-08T01:13:51.203Z,932.99
2018-12-08T01:14:51.362Z,932.89
2018-12-08T01:15:51.239Z,932.91
2018-12-08T01:16:51.259Z,932.86
2018-12-08T01:17:51.268Z,932.83
2018-12-08T01:18:51.273Z,932.84
2018-12-08T01:19:51.509Z,932.81
2018-12-08T01:20:51.298Z,932.82
2018-12-08T01:21:51.330Z,932.84
2018-12-08T01:22:51.448Z,932.79
2018-12-08T01:23:51.354Z,932.75
2018-12-08T01:24:51.550Z,932.77
2018-12-08T01:25:51.379Z,932.77
2018-12-08T01:26:51.385Z,932.77
2018-12-08T01:27:51.410Z,932.76
2018-12-08T01:28:51.526Z,932.68
2018-12-08T01:29:51.467Z,932.74
2018-12-08T01:30:51.440Z,932.74
2018-12-08T01:31:51.437Z,932.80
2018-12-08T01:32:51.564Z,932.83
2018-12-08T01:33:51.491Z,932.84
2018-12-08T01:34:51.480Z,932.83
2018-12-08T01:35:51.624Z,932.83
2018-12-08T01:36:51.543Z,932.76
2018-12-08T01:37:51.653Z,932.81
2018-12-08T01:38:51.557Z,932.80
2018-12-08T01:39:51.549Z,932.80
2018-12-08T01:40:51.570Z,932.83
2018-12-08T01:41:51.701Z,932.80
2018-12-08T01:42:51.703Z,932.82
2018-12-08T01:43:51.609Z,932.86
2018-12-08T01:44:51.638Z,932.83
2018-12-08T01:45:51.666Z,932.86
2018-12-08T01:46:51.668Z,932.88
2018-12-08T01:47:51.753Z,932.85
2018-12-08T01:48:51.663Z,932.89
2018-12-08T01:49:51.725Z,932.84
2018-12-08T01:50:51.689Z,932.80
2018-12-08T01:51:51.718Z,932.80
2018-12-08T01:52:51.936Z,932.83
2018-12-08T01:53:51.736Z,932.87
2018-12-08T01:54:51.864Z,932.83
2018-12-08T01:55:51.877Z,932.85
2018-12-08T01:56:51.792Z,932.84
2018-12-08T01:57:51.889Z,932.87
2018-12-08T01:58:51.798Z,932.80
2018-12-08T01:59:51.826Z,932.81
2018-12-08T02:00:51.831Z,932.80
2018-12-08T02:01:51.837Z,932.82
2018-12-08T02:02:52.014Z,932.76
2018-12-08T02:03:52.889Z,932.80
2018-12-08T02:04:51.879Z,932.78
2018-12-08T02:05:51.901Z,932.83
2018-12-08T02:06:51.890Z,932.81
2018-12-08T02:07:52.003Z,932.81
2018-12-08T02:08:51.926Z,932.82
2018-12-08T02:09:52.010Z,932.81
2018-12-08T02:10:52.007Z,932.78
2018-12-08T02:11:51.964Z,932.75
2018-12-08T02:12:52.128Z,932.79
2018-12-08T02:13:52.102Z,932.79
2018-12-08T02:14:51.992Z,932.83
2018-12-08T02:15:52.127Z,932.82
2018-12-08T02:16:52.011Z,932.84
2018-12-08T02:17:52.179Z,932.82
2018-12-08T02:18:52.050Z,932.82
2018-12-08T02:19:52.050Z,932.86
2018-12-08T02:20:52.069Z,932.85
2018-12-08T02:21:52.077Z,932.88
2018-12-08T02:22:52.182Z,932.88
2018-12-08T02:23:52.093Z,932.93
2018-12-08T02:24:52.126Z,932.93
2018-12-08T02:25:52.133Z,932.94
2018-12-08T02:26:52.133Z,932.95
2018-12-08T02:27:52.257Z,932.92
2018-12-08T02:28:52.165Z,932.96
2018-12-08T02:29:52.174Z,932.98
2018-12-08T02:30:52.196Z,932.93
2018-12-08T02:31:52.215Z,932.96
2018-12-08T02:32:52.355Z,932.92
2018-12-08T02:33:52.226Z,932.90
2018-12-08T02:34:52.362Z,932.89
2018-12-08T02:35:52.374Z,932.93
2018-12-08T02:36:52.261Z,932.91
2018-12-08T02:37:52.368Z,932.96
2018-12-08T02:38:52.294Z,932.92
2018-12-08T02:39:52.297Z,932.90
2018-12-08T02:40:52.365Z,932.90
2018-12-08T02:41:52.340Z,932.86
2018-12-08T02:42:52.440Z,932.85
2018-12-08T02:43:52.348Z,932.75
2018-12-08T02:44:52.543Z,932.78
2018-12-08T02:45:52.495Z,932.75
2018-12-08T02:46:52.397Z,932.74
2018-12-08T02:47:52.557Z,932.75
2018-12-08T02:48:52.419Z,932.78
2018-12-08T02:49:52.438Z,932.81
2018-12-08T02:50:52.444Z,932.80
2018-12-08T02:51:52.468Z,932.81
2018-12-08T02:52:52.555Z,932.78
2018-12-08T02:53:52.483Z,932.82
2018-12-08T02:54:52.488Z,932.80
2018-12-08T02:55:52.502Z,932.84
2018-12-08T02:56:52.628Z,932.79
2018-12-08T02:57:52.667Z,932.87
2018-12-08T02:58:52.527Z,932.87
2018-12-08T02:59:52.534Z,932.87
2018-12-08T03:00:52.553Z,932.90
2018-12-08T03:01:52.567Z,932.88
2018-12-08T03:02:52.680Z,932.89
2018-12-08T03:03:52.717Z,932.95
2018-12-08T03:04:52.610Z,932.94
2018-12-08T03:05:52.629Z,932.97
2018-12-08T03:06:52.631Z,932.97
2018-12-08T03:07:52.783Z,932.95
2018-12-08T03:08:52.663Z,932.93
2018-12-08T03:09:52.691Z,932.99
2018-12-08T03:10:52.682Z,932.96
2018-12-08T03:11:52.695Z,932.97
2018-12-08T03:12:52.805Z,932.96
2018-12-08T03:13:52.708Z,932.98
2018-12-08T03:14:52.849Z,932.97
2018-12-08T03:15:52.746Z,932.93
2018-12-08T03:16:52.749Z,932.96
2018-12-08T03:17:52.873Z,932.94
2018-12-08T03:18:52.896Z,932.91
2018-12-08T03:19:52.798Z,932.94
2018-12-08T03:20:52.791Z,932.97
2018-12-08T03:21:52.811Z,932.92
2018-12-08T03:22:52.994Z,932.96
2018-12-08T03:23:52.837Z,932.97
2018-12-08T03:24:52.848Z,932.94
2018-12-08T03:25:52.848Z,932.88
2018-12-08T03:26:52.864Z,932.84
2018-12-08T03:27:52.991Z,932.81
2018-12-08T03:28:52.889Z,932.79
2018-12-08T03:29:53.025Z,932.77
2018-12-08T03:30:52.930Z,932.75
2018-12-08T03:31:52.935Z,932.82
2018-12-08T03:32:53.043Z,932.80
2018-12-08T03:33:53.073Z,932.84
2018-12-08T03:34:52.968Z,932.81
2018-12-08T03:35:52.971Z,932.81
2018-12-08T03:36:52.975Z,932.88
2018-12-08T03:37:53.103Z,932.83
2018-12-08T03:38:53.133Z,932.86
2018-12-08T03:39:53.021Z,932.86
2018-12-08T03:40:53.031Z,932.81
2018-12-08T03:41:53.056Z,932.82
2018-12-08T03:42:53.280Z,932.84
2018-12-08T03:43:53.075Z,932.79
2018-12-08T03:44:53.205Z,932.73
2018-12-08T03:45:53.094Z,932.76
2018-12-08T03:46:53.118Z,932.78
2018-12-08T03:47:53.205Z,932.76
2018-12-08T03:48:53.172Z,932.74
2018-12-08T03:49:53.148Z,932.80
2018-12-08T03:50:53.159Z,932.77
2018-12-08T03:51:53.155Z,932.85
2018-12-08T03:52:53.287Z,932.83
2018-12-08T03:53:53.191Z,932.82
2018-12-08T03:54:53.199Z,932.79
2018-12-08T03:55:53.334Z,932.76
2018-12-08T03:56:53.342Z,932.77
2018-12-08T03:57:53.325Z,932.78
2018-12-08T03:58:53.369Z,932.77
2018-12-08T03:59:53.264Z,932.76
2018-12-08T04:00:53.281Z,932.76
2018-12-08T04:01:53.285Z,932.71
2018-12-08T04:02:53.435Z,932.64
2018-12-08T04:03:53.303Z,932.67
2018-12-08T04:04:53.319Z,932.71
2018-12-08T04:05:53.338Z,932.66
2018-12-08T04:06:53.330Z,932.67
2018-12-08T04:07:53.545Z,932.67
2018-12-08T04:08:53.482Z,932.61
2018-12-08T04:09:53.373Z,932.60
2018-12-08T04:10:53.499Z,932.52
2018-12-08T04:11:53.521Z,932.44
2018-12-08T04:12:53.514Z,932.49
2018-12-08T04:13:53.419Z,932.48
2018-12-08T04:14:53.461Z,932.50
2018-12-08T04:15:53.457Z,932.57
2018-12-08T04:16:53.603Z,932.59
2018-12-08T04:17:53.573Z,932.61
2018-12-08T04:18:53.605Z,932.63
2018-12-08T04:19:53.615Z,932.53
2018-12-08T04:20:53.509Z,932.58
2018-12-08T04:21:53.637Z,932.58
2018-12-08T04:22:53.625Z,932.60
2018-12-08T04:23:53.555Z,932.56
2018-12-08T04:24:53.564Z,932.54
2018-12-08T04:25:53.578Z,932.53
2018-12-08T04:26:53.588Z,932.45
2018-12-08T04:27:53.806Z,932.52
2018-12-08T04:28:53.615Z,932.64
2018-12-08T04:29:53.630Z,932.56
2018-12-08T04:30:53.620Z,932.52
2018-12-08T04:31:53.643Z,932.54
2018-12-08T04:32:53.745Z,932.58
2018-12-08T04:33:53.819Z,932.52
2018-12-08T04:34:53.669Z,932.60
2018-12-08T04:35:54.748Z,932.57
2018-12-08T04:36:53.682Z,932.60
2018-12-08T04:37:53.806Z,932.58
2018-12-08T04:38:53.702Z,932.59
2018-12-08T04:39:53.723Z,932.57
2018-12-08T04:40:53.729Z,932.61
2018-12-08T04:41:53.745Z,932.63
2018-12-08T04:42:53.983Z,932.58
2018-12-08T04:43:53.776Z,932.57
2018-12-08T04:44:53.784Z,932.55
2018-12-08T04:45:53.797Z,932.54
2018-12-08T04:46:53.794Z,932.53
2018-12-08T04:47:53.919Z,932.54
2018-12-08T04:48:53.847Z,932.55
2018-12-08T04:49:53.911Z,932.56
2018-12-08T04:50:53.873Z,932.56
2018-12-08T04:51:53.868Z,932.56
2018-12-08T04:52:53.996Z,932.49
2018-12-08T04:53:53.892Z,932.56
2018-12-08T04:54:53.895Z,932.52
2018-12-08T04:55:54.029Z,932.66
2018-12-08T04:56:53.911Z,932.54
2018-12-08T04:57:54.035Z,932.62
2018-12-08T04:58:53.954Z,932.64
2018-12-08T04:59:53.950Z,932.60
2018-12-08T05:00:53.986Z,932.71
2018-12-08T05:01:53.998Z,932.64
2018-12-08T05:02:54.078Z,932.64
2018-12-08T05:03:54.014Z,932.65
2018-12-08T05:04:54.008Z,932.64
2018-12-08T05:05:54.034Z,932.65
2018-12-08T05:06:54.030Z,932.64
2018-12-08T05:07:54.242Z,932.61
2018-12-08T05:08:54.062Z,932.69
2018-12-08T05:09:54.064Z,932.66
2018-12-08T05:10:54.094Z,932.61
2018-12-08T05:11:54.212Z,932.68
2018-12-08T05:12:54.188Z,932.66
2018-12-08T05:13:54.149Z,932.65
2018-12-08T05:14:54.168Z,932.68
2018-12-08T05:15:54.256Z,932.73
2018-12-08T05:16:54.156Z,932.54
2018-12-08T05:17:54.267Z,932.64
2018-12-08T05:18:54.203Z,932.68
2018-12-08T05:19:54.240Z,932.78
2018-12-08T05:20:54.178Z,932.70
2018-12-08T05:21:54.201Z,932.73
2018-12-08T05:22:54.315Z,932.78
2018-12-08T05:23:54.339Z,932.72
2018-12-08T05:24:54.351Z,932.79
2018-12-08T05:25:54.235Z,932.70
2018-12-08T05:26:54.240Z,932.70
2018-12-08T05:27:54.377Z,932.72
2018-12-08T05:28:54.383Z,932.71
2018-12-08T05:29:54.280Z,932.64
2018-12-08T05:30:54.310Z,932.61
2018-12-08T05:31:54.365Z,932.57
2018-12-08T05:32:54.435Z,932.57
2018-12-08T05:33:54.316Z,932.55
2018-12-08T05:34:54.457Z,932.52
2018-12-08T05:35:54.338Z,932.50
2018-12-08T05:36:54.370Z,932.47
2018-12-08T05:37:54.485Z,932.44
2018-12-08T05:38:54.383Z,932.42
2018-12-08T05:39:54.461Z,932.42
2018-12-08T05:40:54.394Z,932.42
2018-12-08T05:41:54.424Z,932.42
2018-12-08T05:42:54.533Z,932.37
2018-12-08T05:43:54.441Z,932.39
2018-12-08T05:44:54.565Z,932.34
2018-12-08T05:45:54.445Z,932.36
2018-12-08T05:46:54.585Z,932.31
2018-12-08T05:47:54.573Z,932.28
2018-12-08T05:48:54.607Z,932.28
2018-12-08T05:49:54.509Z,932.29
2018-12-08T05:50:54.519Z,932.26
2018-12-08T05:51:54.522Z,932.30
2018-12-08T05:52:54.720Z,932.32
2018-12-08T05:53:54.540Z,932.32
2018-12-08T05:54:54.564Z,932.31
2018-12-08T05:55:54.562Z,932.30
2018-12-08T05:56:54.577Z,932.29
2018-12-08T05:57:54.750Z,932.29
2018-12-08T05:58:54.595Z,932.28
2018-12-08T05:59:54.598Z,932.27
2018-12-08T06:00:54.735Z,932.25
2018-12-08T06:01:54.738Z,932.30
2018-12-08T06:02:54.739Z,932.25
2018-12-08T06:03:54.635Z,932.24
2018-12-08T06:04:54.643Z,932.23
2018-12-08T06:05:54.672Z,932.26
2018-12-08T06:06:54.672Z,932.28
2018-12-08T06:07:54.912Z,932.28
2018-12-08T06:08:54.722Z,932.28
2018-12-08T06:09:54.831Z,932.28
2018-12-08T06:10:54.715Z,932.25
2018-12-08T06:11:54.737Z,932.30
2018-12-08T06:12:54.964Z,932.26
2018-12-08T06:13:54.743Z,932.24
2018-12-08T06:14:54.749Z,932.26
2018-12-08T06:15:54.773Z,932.30
2018-12-08T06:16:54.788Z,932.32
2018-12-08T06:17:54.958Z,932.29
2018-12-08T06:18:54.798Z,932.29
2018-12-08T06:19:54.807Z,932.29
2018-12-08T06:20:54.815Z,932.28
2018-12-08T06:21:54.847Z,932.33
2018-12-08T06:22:55.123Z,932.34
2018-12-08T06:23:54.866Z,932.33
2018-12-08T06:24:54.886Z,932.23
2018-12-08T06:25:54.895Z,932.31
2018-12-08T06:26:54.884Z,932.28
2018-12-08T06:27:55.006Z,932.32
2018-12-08T06:28:54.929Z,932.31
2018-12-08T06:29:54.930Z,932.31
2018-12-08T06:30:54.935Z,932.24
2018-12-08T06:31:54.972Z,932.31
2018-12-08T06:32:55.168Z,932.32
2018-12-08T06:33:54.975Z,932.29
2018-12-08T06:34:54.980Z,932.27
2018-12-08T06:35:54.990Z,932.25
2018-12-08T06:36:54.989Z,932.26
2018-12-08T06:37:55.120Z,932.25
2018-12-08T06:38:55.034Z,932.30
2018-12-08T06:39:55.049Z,932.26
2018-12-08T06:40:55.046Z,932.22
2018-12-08T06:42:00.181Z,932.26
2018-12-08T06:42:55.225Z,932.16
2018-12-08T06:43:55.104Z,932.19
2018-12-08T06:44:55.102Z,932.27
2018-12-08T06:45:55.224Z,932.24
2018-12-08T06:46:55.117Z,932.22
2018-12-08T06:47:55.185Z,932.32
2018-12-08T06:48:55.226Z,932.25
2018-12-08T06:49:55.145Z,932.26
2018-12-08T06:50:55.277Z,932.28
2018-12-08T06:51:55.165Z,932.32
2018-12-08T06:52:55.177Z,932.36
2018-12-08T06:53:55.284Z,932.36
2018-12-08T06:54:55.198Z,932.37
2018-12-08T06:55:55.219Z,932.38
2018-12-08T06:56:55.229Z,932.42
2018-12-08T06:57:55.232Z,932.42
2018-12-08T06:58:55.392Z,932.48
2018-12-08T06:59:55.254Z,932.48
2018-12-08T07:00:55.269Z,932.49
2018-12-08T07:01:55.289Z,932.49
2018-12-08T07:02:55.285Z,932.53
2018-12-08T07:03:55.404Z,932.52
2018-12-08T07:04:55.313Z,932.50
2018-12-08T07:05:55.338Z,932.48
2018-12-08T07:06:55.329Z,932.54
2018-12-08T07:07:55.351Z,932.45
2018-12-08T07:08:55.496Z,932.47
2018-12-08T07:09:55.373Z,932.43
2018-12-08T07:10:55.493Z,932.41
2018-12-08T07:11:55.396Z,932.43
2018-12-08T07:12:55.407Z,932.33
2018-12-08T07:13:55.510Z,932.35
2018-12-08T07:14:55.421Z,932.39
2018-12-08T07:15:55.440Z,932.36
2018-12-08T07:16:55.443Z,932.40
2018-12-08T07:17:55.448Z,932.42
2018-12-08T07:18:55.566Z,932.45
2018-12-08T07:19:55.468Z,932.41
2018-12-08T07:20:55.491Z,932.43
2018-12-08T07:21:55.614Z,932.45
2018-12-08T07:22:55.519Z,932.48
2018-12-08T07:23:55.737Z,932.45
2018-12-08T07:24:55.521Z,932.50
2018-12-08T07:25:55.548Z,932.49
2018-12-08T07:26:55.590Z,932.49
2018-12-08T07:27:55.567Z,932.47
2018-12-08T07:28:55.667Z,932.52
2018-12-08T07:29:55.577Z,932.55
2018-12-08T07:30:55.587Z,932.38
2018-12-08T07:31:55.607Z,932.52
2018-12-08T07:32:55.604Z,932.53
2018-12-08T07:33:55.722Z,932.53
2018-12-08T07:34:55.649Z,932.52
2018-12-08T07:35:55.642Z,932.57
2018-12-08T07:36:55.658Z,932.60
2018-12-08T07:37:55.669Z,932.61
2018-12-08T07:38:55.886Z,932.63
2018-12-08T07:39:57.562Z,932.62
2018-12-08T07:40:55.710Z,932.58
2018-12-08T07:41:55.708Z,932.60
2018-12-08T07:42:55.731Z,932.59
2018-12-08T07:43:56.002Z,932.65
2018-12-08T07:44:55.739Z,932.63
2018-12-08T07:45:55.753Z,932.62
2018-12-08T07:46:55.754Z,932.61
2018-12-08T07:47:55.784Z,932.66
2018-12-08T07:48:55.898Z,932.65
2018-12-08T07:49:55.802Z,932.70
2018-12-08T07:50:55.929Z,932.73
2018-12-08T07:51:55.822Z,932.69
2018-12-08T07:52:55.953Z,932.64
2018-12-08T07:53:55.930Z,932.73
2018-12-08T07:54:55.865Z,932.74
2018-12-08T07:55:55.954Z,932.79
2018-12-08T07:56:55.871Z,932.80
2018-12-08T07:57:55.880Z,932.82
2018-12-08T07:58:56.009Z,932.82
2018-12-08T07:59:55.906Z,932.85
2018-12-08T08:00:55.926Z,932.93
2018-12-08T08:01:55.970Z,932.90
2018-12-08T08:02:55.984Z,932.78
2018-12-08T08:03:56.060Z,932.92
2018-12-08T08:04:55.957Z,932.94
2018-12-08T08:05:56.029Z,933.01
2018-12-08T08:06:56.000Z,932.91
2018-12-08T08:07:55.993Z,932.98
2018-12-08T08:08:56.009Z,932.89
2018-12-08T08:09:56.122Z,933.00
2018-12-08T08:10:56.029Z,933.00
2018-12-08T08:11:56.034Z,932.97
2018-12-08T08:12:56.064Z,932.99
2018-12-08T08:13:56.061Z,932.96
2018-12-08T08:14:56.170Z,932.96
2018-12-08T08:15:56.078Z,932.99
2018-12-08T08:16:56.108Z,932.96
2018-12-08T08:17:56.219Z,932.97
2018-12-08T08:18:56.133Z,933.00
2018-12-08T08:19:56.116Z,932.97
2018-12-08T08:20:56.239Z,933.05
2018-12-08T08:21:56.151Z,933.04
2018-12-08T08:22:56.158Z,933.05
2018-12-08T08:23:56.214Z,933.05
2018-12-08T08:24:56.176Z,933.13
2018-12-08T08:25:56.279Z,933.14
2018-12-08T08:26:56.189Z,933.17
2018-12-08T08:27:56.201Z,933.10
2018-12-08T08:28:56.218Z,933.10
2018-12-08T08:29:56.249Z,933.14
2018-12-08T08:30:56.343Z,933.11
2018-12-08T08:31:56.257Z,933.10
2018-12-08T08:32:56.265Z,933.15
2018-12-08T08:33:56.268Z,933.05
2018-12-08T08:34:56.272Z,933.08
2018-12-08T08:35:56.349Z,933.10
2018-12-08T08:36:56.300Z,933.12
2018-12-08T08:37:56.304Z,933.17
2018-12-08T08:38:56.315Z,933.16
2018-12-08T08:39:56.331Z,933.18
2018-12-08T08:40:56.442Z,933.15
2018-12-08T08:41:56.355Z,933.19
2018-12-08T08:42:56.364Z,933.20
2018-12-08T08:43:56.359Z,933.15
2018-12-08T08:44:56.393Z,933.19
2018-12-08T08:45:56.482Z,933.21
2018-12-08T08:46:56.397Z,933.24
2018-12-08T08:47:56.427Z,933.29
2018-12-08T08:48:56.424Z,933.27
2018-12-08T08:49:56.430Z,933.22
2018-12-08T08:50:56.552Z,933.24
2018-12-08T08:51:56.459Z,933.23
2018-12-08T08:52:56.454Z,933.26
2018-12-08T08:53:56.475Z,933.28
2018-12-08T08:54:56.607Z,933.30
2018-12-08T08:55:56.598Z,933.29
2018-12-08T08:56:56.506Z,933.31
2018-12-08T08:57:56.534Z,933.30
2018-12-08T08:58:56.550Z,933.30
2018-12-08T08:59:56.555Z,933.35
2018-12-08T09:00:56.666Z,933.25
2018-12-08T09:01:56.560Z,933.35
2018-12-08T09:02:56.583Z,933.36
2018-12-08T09:03:56.585Z,933.42
2018-12-08T09:04:56.592Z,933.39
2018-12-08T09:05:56.755Z,933.45
2018-12-08T09:06:56.743Z,933.44
2018-12-08T09:07:56.631Z,933.37
2018-12-08T09:08:56.652Z,933.40
2018-12-08T09:09:56.665Z,933.49
2018-12-08T09:10:56.823Z,933.48
2018-12-08T09:11:56.675Z,933.47
2018-12-08T09:12:56.732Z,933.50
2018-12-08T09:13:56.720Z,933.51
2018-12-08T09:14:56.721Z,933.54
2018-12-08T09:15:56.852Z,933.55
2018-12-08T09:16:56.856Z,933.48
2018-12-08T09:17:56.751Z,933.49
2018-12-08T09:18:56.748Z,933.49
2018-12-08T09:19:56.769Z,933.50
2018-12-08T09:20:56.881Z,933.52
2018-12-08T09:21:57.556Z,933.45
2018-12-08T09:22:56.822Z,933.55
2018-12-08T09:23:56.825Z,933.55
2018-12-08T09:24:56.826Z,933.58
2018-12-08T09:25:56.932Z,933.63
2018-12-08T09:26:56.865Z,933.59
2018-12-08T09:27:56.881Z,933.63
2018-12-08T09:28:56.886Z,933.67
2018-12-08T09:29:57.015Z,933.63
2018-12-08T09:30:57.009Z,933.61
2018-12-08T09:31:56.903Z,933.70
2018-12-08T09:32:57.045Z,933.64
2018-12-08T09:33:56.949Z,933.70
2018-12-08T09:34:57.015Z,933.71
2018-12-08T09:35:57.054Z,933.77
2018-12-08T09:36:56.979Z,933.82
2018-12-08T09:37:56.983Z,933.79
2018-12-08T09:38:57.001Z,933.81
2018-12-08T09:39:57.186Z,933.64
2018-12-08T09:40:57.168Z,933.87
2018-12-08T09:41:57.028Z,933.86
2018-12-08T09:42:57.046Z,933.86
2018-12-08T09:43:57.055Z,933.91
2018-12-08T09:44:57.063Z,933.93
2018-12-08T09:45:57.300Z,933.94
2018-12-08T09:46:57.087Z,933.94
2018-12-08T09:47:57.111Z,933.95
2018-12-08T09:48:57.122Z,933.98
2018-12-08T09:49:57.124Z,933.97
2018-12-08T09:50:57.242Z,933.94
2018-12-08T09:51:57.273Z,933.99
2018-12-08T09:52:57.165Z,933.99
2018-12-08T09:53:57.179Z,934.03
2018-12-08T09:54:57.309Z,934.00
2018-12-08T09:55:57.313Z,934.03
2018-12-08T09:56:57.222Z,934.05
2018-12-08T09:57:57.217Z,934.06
2018-12-08T09:58:57.237Z,934.05
2018-12-08T09:59:57.250Z,934.07
2018-12-08T10:00:57.359Z,934.12
2018-12-08T10:01:57.277Z,934.10
2018-12-08T10:02:57.277Z,934.17
2018-12-08T10:03:57.342Z,934.12
2018-12-08T10:04:57.322Z,934.23
2018-12-08T10:05:57.411Z,934.17
2018-12-08T10:06:57.338Z,934.17
2018-12-08T10:07:57.338Z,934.24
2018-12-08T10:08:57.350Z,934.23
2018-12-08T10:09:57.376Z,934.23
2018-12-08T10:10:57.538Z,934.22
2018-12-08T10:11:57.453Z,934.27
2018-12-08T10:12:57.412Z,934.21
2018-12-08T10:13:57.444Z,934.25
2018-12-08T10:14:57.474Z,934.18
2018-12-08T10:15:57.564Z,934.16
2018-12-08T10:16:57.456Z,934.24
2018-12-08T10:17:57.479Z,934.26
2018-12-08T10:18:57.504Z,934.27
2018-12-08T10:19:57.525Z,934.30
2018-12-08T10:20:57.665Z,934.33
2018-12-08T10:21:57.536Z,934.37
2018-12-08T10:22:57.547Z,934.33
2018-12-08T10:23:57.561Z,934.38
2018-12-08T10:24:57.582Z,934.31
2018-12-08T10:25:57.702Z,934.29
2018-12-08T10:26:57.616Z,934.27
2018-12-08T10:27:57.625Z,934.24
2018-12-08T10:28:57.644Z,934.29
2018-12-08T10:29:57.707Z,934.33
2018-12-08T10:31:01.257Z,934.34
2018-12-08T10:31:57.739Z,934.33
2018-12-08T10:32:57.714Z,934.24
2018-12-08T10:33:57.849Z,934.28
2018-12-08T10:34:57.848Z,934.26
2018-12-08T10:35:57.860Z,934.27
2018-12-08T10:36:57.785Z,934.35
2018-12-08T10:37:57.787Z,934.30
2018-12-08T10:38:57.822Z,934.31
2018-12-08T10:39:57.834Z,934.26
2018-12-08T10:40:57.973Z,934.30
2018-12-08T10:41:57.867Z,934.43
2018-12-08T10:42:57.894Z,934.40
2018-12-08T10:43:57.899Z,934.50
2018-12-08T10:44:57.923Z,934.32
2018-12-08T10:45:58.044Z,934.38
2018-12-08T10:46:57.935Z,934.44
2018-12-08T10:47:57.969Z,934.47
2018-12-08T10:48:58.092Z,934.49
2018-12-08T10:49:57.990Z,934.45
2018-12-08T10:50:58.100Z,934.38
2018-12-08T10:51:58.017Z,934.38
2018-12-08T10:52:58.082Z,934.37
2018-12-08T10:53:58.089Z,934.40
2018-12-08T10:54:58.093Z,934.49
2018-12-08T10:55:58.191Z,934.36
2018-12-08T10:56:58.147Z,934.31
2018-12-08T10:57:58.099Z,934.54
2018-12-08T10:58:58.143Z,934.44
2018-12-08T10:59:58.147Z,934.51
2018-12-08T11:00:58.261Z,934.51
2018-12-08T11:01:58.165Z,934.52
2018-12-08T11:02:58.184Z,934.48
2018-12-08T11:03:58.213Z,934.51
2018-12-08T11:04:58.208Z,934.52
2018-12-08T11:05:58.227Z,934.57
2018-12-08T11:06:58.352Z,934.47
2018-12-08T11:07:58.383Z,934.53
2018-12-08T11:08:58.324Z,934.59
2018-12-08T11:09:58.286Z,934.52
2018-12-08T11:10:58.323Z,934.59
2018-12-08T11:11:58.433Z,934.52
2018-12-08T11:12:58.459Z,934.51
2018-12-08T11:13:58.354Z,934.55
2018-12-08T11:15:00.842Z,934.58
2018-12-08T11:15:58.401Z,934.62
2018-12-08T11:16:58.559Z,934.52
2018-12-08T11:17:58.400Z,934.57
2018-12-08T11:18:58.434Z,934.59
2018-12-08T11:19:58.562Z,934.61
2018-12-08T11:20:58.459Z,934.64
2018-12-08T11:21:58.572Z,934.61
2018-12-08T11:22:58.605Z,934.59
2018-12-08T11:23:58.503Z,934.63
2018-12-08T11:24:58.509Z,934.57
2018-12-08T11:25:58.648Z,934.63
2018-12-08T11:26:58.750Z,934.67
2018-12-08T11:27:58.562Z,934.71
2018-12-08T11:28:58.693Z,934.68
2018-12-08T11:29:58.594Z,934.72
2018-12-08T11:30:58.614Z,934.64
2018-12-08T11:31:58.761Z,934.67
2018-12-08T11:32:58.633Z,934.70
2018-12-08T11:33:58.632Z,934.66
2018-12-08T11:34:58.654Z,934.72
2018-12-08T11:35:58.801Z,934.72
2018-12-08T11:36:58.828Z,934.72
2018-12-08T11:37:58.709Z,934.75
2018-12-08T11:38:58.723Z,934.73
2018-12-08T11:39:58.852Z,934.81
2018-12-08T11:40:58.805Z,934.80
2018-12-08T11:41:58.858Z,934.81
2018-12-08T11:42:58.769Z,934.81
2018-12-08T11:43:58.782Z,934.86
2018-12-08T11:44:58.802Z,934.86
2018-12-08T11:45:58.800Z,934.90
2018-12-08T11:46:59.101Z,934.79
2018-12-08T11:47:58.896Z,934.85
2018-12-08T11:48:58.873Z,934.99
2018-12-08T11:49:58.992Z,934.81
2018-12-08T11:50:58.896Z,934.79
2018-12-08T11:51:59.027Z,934.78
2018-12-08T11:52:58.924Z,934.86
2018-12-08T11:53:58.923Z,934.83
2018-12-08T11:54:59.065Z,934.83
2018-12-08T11:55:58.977Z,934.84
2018-12-08T11:56:59.115Z,934.85
2018-12-08T11:57:58.986Z,934.87
2018-12-08T11:58:58.986Z,934.89
2018-12-08T11:59:59.013Z,934.86
2018-12-08T12:00:59.030Z,934.87
2018-12-08T12:01:59.195Z,934.91
2018-12-08T12:02:59.048Z,934.97
2018-12-08T12:03:59.064Z,935.21
2018-12-08T12:04:59.069Z,935.25
2018-12-08T12:05:59.092Z,934.91
2018-12-08T12:06:59.233Z,934.90
2018-12-08T12:07:59.214Z,935.03
2018-12-08T12:08:59.260Z,935.12
2018-12-08T12:09:59.151Z,935.12
2018-12-08T12:10:59.161Z,935.43
2018-12-08T12:11:59.192Z,935.61
2018-12-08T12:12:59.304Z,936.47
2018-12-08T12:13:59.335Z,936.04
2018-12-08T12:14:59.237Z,935.19
2018-12-08T12:15:59.246Z,935.00
2018-12-08T12:16:59.257Z,935.18
2018-12-08T12:17:59.326Z,935.13
2018-12-08T12:18:59.314Z,934.98
2018-12-08T12:19:59.306Z,934.95
2018-12-08T12:20:59.348Z,935.04
2018-12-08T12:21:59.352Z,935.09
2018-12-08T12:22:59.504Z,935.08
2018-12-08T12:23:59.373Z,935.07
2018-12-08T12:24:59.415Z,935.11
2018-12-08T12:25:59.430Z,935.14
2018-12-08T12:26:59.452Z,935.17
2018-12-08T12:27:59.607Z,935.15
2018-12-08T12:28:59.457Z,935.11